Time;durP1;ratioP1;P1;durP2;ratioP2;P2;SDS_P1;SDS_P2;PMS_P1;PMS_P2;Temp;Humidity;BMP_temperature;BMP_pressure;BME280_temperature;BME280_humidity;BME280_pressure;Samples;Min_cycle;Max_cycle;Signal;HPM_P1;HPM_P2
2021/01/08 00:01:25;;;;;;;17.75;11.55;;;;;;;2.40;79.20;98556.09;4835030;29;20231;-88
2021/01/08 00:04:04;;;;;;;18.75;12.63;;;;;;;2.56;78.55;98561.63;4882865;29;20217;-88
2021/01/08 00:06:43;;;;;;;15.43;10.50;;;;;;;2.42;79.21;98558.66;4874080;29;20228;-88
2021/01/08 00:09:10;;;;;;;17.08;11.88;;;;;;;2.32;79.68;98558.19;4917033;29;20253;-89
2021/01/08 00:11:37;;;;;;;17.63;10.63;;;;;;;2.35;79.58;98551.88;4894553;29;20198;-89
2021/01/08 00:14:04;;;;;;;18.80;11.05;;;;;;;2.41;79.88;98565.78;4908418;29;20239;-89
2021/01/08 00:20:27;;;;;;;17.33;12.15;;;;;;;2.31;80.04;98556.47;4924745;29;20232;-88
2021/01/08 00:22:56;;;;;;;20.13;13.70;;;;;;;2.41;80.09;98544.56;4892211;29;20253;-88
2021/01/08 00:25:22;;;;;;;17.95;12.55;;;;;;;2.47;79.71;98552.25;4916061;29;20609;-89
2021/01/08 00:28:00;;;;;;;18.23;11.23;;;;;;;2.43;79.99;98545.34;4901246;29;20260;-89
2021/01/08 00:30:41;;;;;;;19.58;12.10;;;;;;;2.50;79.69;98552.09;4883704;29;20240;-88
2021/01/08 00:33:09;;;;;;;15.52;10.32;;;;;;;2.38;79.59;98547.31;4901047;29;20220;-88
2021/01/08 00:35:41;;;;;;;18.02;10.50;;;;;;;2.36;80.57;98554.50;4915840;29;20205;-88
2021/01/08 00:38:33;;;;;;;18.40;11.57;;;;;;;2.37;80.61;98537.63;4891047;29;20232;-91
2021/01/08 00:40:59;;;;;;;15.57;11.25;;;;;;;2.47;80.08;98546.94;4945989;28;20309;-87
2021/01/08 00:43:28;;;;;;;19.70;11.82;;;;;;;2.54;80.03;98542.22;4893445;29;20309;-89
2021/01/08 00:45:54;;;;;;;19.20;12.50;;;;;;;2.53;80.12;98541.38;4916051;29;20332;-88
2021/01/08 00:48:21;;;;;;;18.13;11.13;;;;;;;2.55;80.05;98543.94;4916672;29;20315;-87
2021/01/08 00:50:47;;;;;;;17.13;10.95;;;;;;;2.60;79.98;98541.97;4900906;29;20237;-87
2021/01/08 00:53:13;;;;;;;15.43;10.60;;;;;;;2.61;79.18;98533.06;4921854;29;20236;-88
2021/01/08 00:55:41;;;;;;;14.32;10.25;;;;;;;2.66;79.24;98539.91;4919414;29;20222;-87
2021/01/08 00:58:08;;;;;;;19.55;11.60;;;;;;;2.56;79.50;98529.78;4907272;29;20256;-90
2021/01/08 01:00:43;;;;;;;17.63;11.30;;;;;;;2.56;79.42;98541.22;5165966;23;20242;-90
2021/01/08 01:03:10;;;;;;;17.02;10.57;;;;;;;2.61;79.35;98535.72;4845064;29;20214;-88
2021/01/08 01:05:37;;;;;;;15.50;9.85;;;;;;;2.57;79.53;98537.66;4878674;29;20702;-88
2021/01/08 01:08:05;;;;;;;15.40;10.48;;;;;;;2.56;79.23;98541.22;4876170;29;20246;-89
2021/01/08 01:10:32;;;;;;;17.08;12.00;;;;;;;2.53;79.28;98544.03;4899805;29;20604;-89
2021/01/08 01:12:59;;;;;;;14.27;9.73;;;;;;;2.59;79.00;98540.25;4874270;29;20251;-90
2021/01/08 01:15:27;;;;;;;12.77;9.30;;;;;;;2.63;79.07;98532.06;4873424;29;20230;-89
2021/01/08 01:17:54;;;;;;;14.90;10.30;;;;;;;2.68;79.04;98539.81;4860392;29;20225;-89
2021/01/08 01:20:30;;;;;;;13.35;9.80;;;;;;;2.65;78.17;98540.81;4871014;29;20291;-88
2021/01/08 01:23:09;;;;;;;14.43;8.73;;;;;;;2.70;77.99;98545.94;4893749;29;20334;-88
2021/01/08 01:25:39;;;;;;;14.40;9.68;;;;;;;2.61;78.40;98551.63;4901286;29;20278;-88
2021/01/08 01:28:09;;;;;;;11.18;8.50;;;;;;;2.66;78.79;98549.66;4884617;29;20615;-88
2021/01/08 01:30:37;;;;;;;12.85;9.55;;;;;;;2.66;78.83;98550.53;4862589;29;20243;-88
2021/01/08 01:33:07;;;;;;;14.50;10.40;;;;;;;2.65;78.87;98538.16;4852954;29;20207;-90
2021/01/08 01:35:39;;;;;;;14.38;9.80;;;;;;;2.63;78.47;98541.84;4881961;29;20211;-89
2021/01/08 01:38:11;;;;;;;15.50;10.75;;;;;;;2.65;78.64;98547.94;4860715;29;20282;-88
2021/01/08 01:41:13;;;;;;;14.13;10.40;;;;;;;2.63;78.77;98536.53;4783860;29;20228;-87
2021/01/08 01:44:05;;;;;;;15.93;9.70;;;;;;;2.55;78.60;98546.59;4840128;29;20224;-87
2021/01/08 01:46:38;;;;;;;17.08;10.27;;;;;;;2.53;79.22;98546.69;4901747;29;20655;-88
2021/01/08 01:49:05;;;;;;;15.13;10.18;;;;;;;2.59;79.65;98543.78;4873391;29;20227;-89
2021/01/08 01:51:31;;;;;;;15.95;10.15;;;;;;;2.67;79.40;98546.94;4890638;23;20216;-89
2021/01/08 01:54:07;;;;;;;17.38;11.55;;;;;;;2.68;79.73;98546.00;4902452;29;20201;-88
2021/01/08 01:59:33;;;;;;;14.18;8.70;;;;;;;2.69;79.57;98547.72;4935315;29;20228;-88
2021/01/08 02:02:05;;;;;;;13.32;9.10;;;;;;;2.64;79.32;98555.03;4932317;29;20232;-87
2021/01/08 02:04:32;;;;;;;13.90;8.68;;;;;;;2.56;79.92;98549.19;4935058;29;20236;-87
2021/01/08 02:07:02;;;;;;;16.15;9.95;;;;;;;2.59;80.05;98549.06;4884046;29;20236;-89
2021/01/08 02:09:31;;;;;;;13.68;9.02;;;;;;;2.63;79.78;98553.31;4917853;29;20233;-88
2021/01/08 02:12:01;;;;;;;12.50;8.50;;;;;;;2.67;79.54;98552.25;4917342;29;20201;-88
2021/01/08 02:14:28;;;;;;;13.75;9.18;;;;;;;2.70;79.19;98559.22;4932682;29;20209;-88
2021/01/08 02:16:57;;;;;;;13.13;9.18;;;;;;;2.70;78.96;98551.25;4947725;29;20245;-88
2021/01/08 02:19:42;;;;;;;15.65;10.52;;;;;;;2.60;79.70;98547.25;4931622;29;20244;-87
2021/01/08 02:22:16;;;;;;;14.57;10.50;;;;;;;2.73;79.47;98552.00;4933082;28;20460;-88
2021/01/08 02:25:10;;;;;;;14.32;9.82;;;;;;;2.71;79.17;98545.03;4938055;29;20212;-88
2021/01/08 02:27:39;;;;;;;13.43;9.90;;;;;;;2.61;79.79;98547.22;4939936;29;20228;-87
2021/01/08 02:30:07;;;;;;;15.80;9.95;;;;;;;2.55;79.81;98544.81;4935222;29;20295;-87
2021/01/08 02:32:34;;;;;;;14.07;10.00;;;;;;;2.56;79.66;98554.50;4908904;29;20197;-88
2021/01/08 02:35:02;;;;;;;15.68;9.15;;;;;;;2.59;79.42;98557.03;4907392;29;20224;-89
2021/01/08 02:37:40;;;;;;;14.75;9.43;;;;;;;2.59;79.68;98554.38;4928651;29;20224;-88
2021/01/08 02:40:12;;;;;;;14.32;9.48;;;;;;;2.59;79.84;98551.72;4908211;29;20232;-89
2021/01/08 02:42:41;;;;;;;13.27;9.13;;;;;;;2.56;79.62;98551.00;4915935;29;20226;-89
2021/01/08 02:45:08;;;;;;;13.38;9.43;;;;;;;2.48;80.39;98542.47;4923882;28;20200;-89
2021/01/08 02:47:35;;;;;;;14.85;9.65;;;;;;;2.58;80.48;98546.47;4927105;29;20249;-87
2021/01/08 02:50:02;;;;;;;14.77;9.18;;;;;;;2.55;80.49;98550.13;4908337;29;20248;-88
2021/01/08 02:52:30;;;;;;;16.45;8.85;;;;;;;2.65;79.55;98545.28;4941344;28;20228;-87
2021/01/08 02:54:58;;;;;;;15.02;9.23;;;;;;;2.72;79.93;98549.41;4925611;29;20228;-88
2021/01/08 02:57:26;;;;;;;13.48;9.23;;;;;;;2.66;80.18;98539.03;4926205;29;20245;-89
2021/01/08 02:59:56;;;;;;;14.00;9.13;;;;;;;2.69;80.25;98547.72;4940272;29;20197;-89
2021/01/08 03:02:24;;;;;;;12.05;9.45;;;;;;;2.67;79.67;98544.28;4940409;29;20236;-89
2021/01/08 03:04:51;;;;;;;13.13;8.57;;;;;;;2.68;80.05;98543.34;4941358;28;20204;-89
2021/01/08 03:07:26;;;;;;;11.45;8.60;;;;;;;2.74;79.57;98537.78;4941061;29;20212;-89
2021/01/08 03:09:56;;;;;;;14.98;9.52;;;;;;;2.65;79.76;98540.81;4918530;29;20217;-88
2021/01/08 03:12:28;;;;;;;15.23;9.80;;;;;;;2.66;80.06;98534.59;4928923;29;20229;-87
2021/01/08 03:14:54;;;;;;;14.98;10.15;;;;;;;2.73;80.32;98544.03;4912989;29;20192;-87
2021/01/08 03:17:21;;;;;;;13.70;9.27;;;;;;;2.72;79.50;98531.69;4920928;29;20233;-87
2021/01/08 03:19:47;;;;;;;14.63;8.98;;;;;;;2.67;79.60;98538.97;4938968;29;20276;-87
2021/01/08 03:22:14;;;;;;;14.10;8.80;;;;;;;2.64;79.90;98535.59;4908808;29;20232;-87
2021/01/08 03:24:41;;;;;;;13.63;9.60;;;;;;;2.67;80.42;98533.69;4955184;29;20217;-88
2021/01/08 03:27:07;;;;;;;14.07;10.10;;;;;;;2.66;80.31;98525.78;4939474;29;20611;-86
2021/01/08 03:29:34;;;;;;;12.35;8.25;;;;;;;2.61;80.74;98528.63;4913171;29;20225;-87
2021/01/08 03:32:00;;;;;;;12.98;8.60;;;;;;;2.53;81.25;98525.47;4937521;29;20229;-87
2021/01/08 03:34:27;;;;;;;13.73;9.30;;;;;;;2.42;81.87;98532.13;4925552;29;20205;-89
2021/01/08 03:36:53;;;;;;;13.63;9.27;;;;;;;2.49;81.81;98526.50;4917205;29;20258;-87
2021/01/08 03:39:19;;;;;;;11.93;8.23;;;;;;;2.48;82.26;98524.78;4919685;29;20383;-88
2021/01/08 03:41:46;;;;;;;11.52;8.82;;;;;;;2.40;82.05;98532.22;4955382;23;20259;-88
2021/01/08 03:44:13;;;;;;;15.13;8.75;;;;;;;2.43;81.98;98529.41;4878424;29;20252;-88
2021/01/08 03:46:40;;;;;;;13.23;9.50;;;;;;;2.38;81.96;98535.84;4865481;29;20229;-89
2021/01/08 03:49:07;;;;;;;14.93;9.27;;;;;;;2.40;82.60;98537.53;4880815;29;20317;-89
2021/01/08 03:51:33;;;;;;;10.73;8.80;;;;;;;2.32;82.29;98534.31;4855268;29;20222;-89
2021/01/08 03:54:00;;;;;;;13.90;9.68;;;;;;;2.45;82.20;98532.84;4862969;29;20186;-91
2021/01/08 03:56:26;;;;;;;15.90;9.00;;;;;;;2.50;81.51;98525.56;4897402;29;20259;-89
2021/01/08 03:58:53;;;;;;;13.35;8.55;;;;;;;2.41;82.09;98533.94;4867941;29;20691;-89
2021/01/08 04:01:19;;;;;;;14.40;9.35;;;;;;;2.46;82.21;98528.44;4864669;29;20267;-90
2021/01/08 04:03:46;;;;;;;12.88;8.20;;;;;;;2.47;81.77;98531.03;4867859;29;20239;-90
2021/01/08 04:06:12;;;;;;;12.02;8.73;;;;;;;2.55;81.87;98528.03;4866837;29;20272;-90
2021/01/08 04:08:38;;;;;;;13.27;9.00;;;;;;;2.59;82.10;98529.63;4886262;29;20214;-89
2021/01/08 04:11:05;;;;;;;11.25;8.57;;;;;;;2.61;82.00;98527.75;4883594;29;20222;-89
2021/01/08 04:13:31;;;;;;;12.15;8.10;;;;;;;2.61;81.32;98533.06;4875809;29;20234;-90
2021/01/08 04:15:57;;;;;;;13.85;8.75;;;;;;;2.65;81.58;98535.50;4862071;29;20238;-87
2021/01/08 04:18:24;;;;;;;11.57;8.23;;;;;;;2.59;81.76;98535.81;4857316;29;20240;-89
2021/01/08 04:20:52;;;;;;;9.32;7.32;;;;;;;2.62;80.73;98530.34;4860098;29;20226;-87
2021/01/08 04:23:19;;;;;;;12.48;8.63;;;;;;;2.55;80.90;98534.19;4878598;29;20227;-87
2021/01/08 04:25:45;;;;;;;13.15;8.05;;;;;;;2.66;81.36;98531.94;4871970;29;20255;-88
2021/01/08 04:28:16;;;;;;;13.52;8.48;;;;;;;2.59;80.91;98535.81;4868309;29;20242;-88
2021/01/08 04:30:43;;;;;;;11.20;9.25;;;;;;;2.59;80.99;98526.97;4865558;29;20235;-89
2021/01/08 04:33:13;;;;;;;9.35;7.45;;;;;;;2.57;81.08;98529.69;4858227;29;20234;-89
2021/01/08 04:35:39;;;;;;;10.20;8.18;;;;;;;2.56;81.40;98529.78;4851647;29;20183;-91
2021/01/08 04:38:06;;;;;;;11.63;7.85;;;;;;;2.65;80.64;98527.53;4895176;29;20277;-89
2021/01/08 04:40:32;;;;;;;13.32;7.80;;;;;;;2.63;80.63;98528.56;4857307;29;20265;-89
2021/01/08 04:42:58;;;;;;;13.15;9.10;;;;;;;2.67;80.61;98523.06;4880773;29;20226;-88
2021/01/08 04:45:25;;;;;;;10.68;8.85;;;;;;;2.65;80.62;98519.59;4882305;29;20230;-88
2021/01/08 04:47:54;;;;;;;10.93;8.13;;;;;;;2.63;80.43;98525.91;4885849;29;20254;-89
2021/01/08 04:50:21;;;;;;;9.88;7.40;;;;;;;2.62;79.84;98518.84;4859275;29;20231;-88
2021/01/08 04:52:48;;;;;;;10.65;7.70;;;;;;;2.65;79.70;98514.28;4854155;29;20255;-89
2021/01/08 04:55:15;;;;;;;11.18;7.82;;;;;;;2.64;79.65;98517.88;4878124;29;20230;-90
2021/01/08 04:57:45;;;;;;;12.82;6.82;;;;;;;2.72;79.04;98515.75;4862937;29;20270;-90
2021/01/08 05:00:14;;;;;;;9.48;6.95;;;;;;;2.77;79.04;98513.75;4898371;29;20226;-91
2021/01/08 05:02:40;;;;;;;10.32;7.43;;;;;;;2.77;78.80;98523.50;4885345;29;20208;-92
2021/01/08 05:05:08;;;;;;;7.53;6.55;;;;;;;2.80;78.51;98521.59;4898795;29;20211;-92
2021/01/08 05:07:34;;;;;;;9.00;6.60;;;;;;;2.74;78.33;98527.16;4888563;29;20263;-90
2021/01/08 05:10:01;;;;;;;8.27;6.40;;;;;;;2.75;78.73;98526.22;4866898;29;20337;-91
2021/01/08 05:12:39;;;;;;;9.38;7.50;;;;;;;2.75;78.58;98528.00;4869746;29;20250;-89
2021/01/08 05:15:09;;;;;;;9.90;7.30;;;;;;;2.65;79.04;98534.66;4883159;29;20201;-90
2021/01/08 05:17:35;;;;;;;7.40;5.82;;;;;;;2.79;79.12;98538.44;4898917;29;20268;-91
2021/01/08 05:20:02;;;;;;;9.57;6.90;;;;;;;2.79;78.12;98527.84;4894495;29;20245;-91
2021/01/08 05:22:28;;;;;;;20.40;9.93;;;;;;;2.83;78.92;98536.53;4892991;29;20237;-88
2021/01/08 05:25:05;;;;;;;10.05;7.85;;;;;;;2.83;78.72;98534.72;4880827;29;20231;-89
2021/01/08 05:27:31;;;;;;;8.05;6.05;;;;;;;2.71;78.07;98532.59;4866680;29;20230;-88
2021/01/08 05:30:12;;;;;;;9.00;7.45;;;;;;;2.80;78.54;98531.31;4873210;29;20215;-90
2021/01/08 05:32:39;;;;;;;10.23;6.97;;;;;;;2.83;78.43;98540.03;4873354;29;20231;-90
2021/01/08 05:35:06;;;;;;;8.48;6.45;;;;;;;2.77;78.19;98532.31;4869304;29;20230;-88
2021/01/08 05:37:33;;;;;;;8.15;7.32;;;;;;;2.73;78.30;98535.19;4850280;29;20230;-89
2021/01/08 05:40:04;;;;;;;8.55;6.63;;;;;;;2.71;78.38;98535.25;4866942;29;20306;-88
2021/01/08 05:42:30;;;;;;;9.75;7.57;;;;;;;2.73;78.14;98538.72;4866869;29;20253;-88
2021/01/08 05:44:56;;;;;;;10.10;7.50;;;;;;;2.67;77.92;98544.28;4848991;29;20198;-88
2021/01/08 05:47:23;;;;;;;7.55;6.32;;;;;;;2.56;77.40;98543.88;4884645;29;20214;-88
2021/01/08 05:49:50;;;;;;;8.35;6.30;;;;;;;2.51;77.43;98543.22;4859095;29;20233;-88
2021/01/08 05:52:16;;;;;;;10.73;6.68;;;;;;;2.53;77.50;98540.50;4875935;29;20262;-89
2021/01/08 05:54:43;;;;;;;10.57;7.90;;;;;;;2.60;77.46;98542.84;4873615;29;20226;-89
2021/01/08 05:57:10;;;;;;;10.60;6.90;;;;;;;2.65;77.01;98546.13;4885188;29;20222;-90
2021/01/08 05:59:37;;;;;;;9.57;7.38;;;;;;;2.63;77.13;98542.69;4871850;29;20215;-89
2021/01/08 06:02:05;;;;;;;11.18;6.95;;;;;;;2.71;76.50;98543.22;4854805;29;20226;-90
2021/01/08 06:04:35;;;;;;;11.18;6.57;;;;;;;2.76;77.07;98543.88;4878426;29;20230;-90
2021/01/08 06:07:15;;;;;;;7.82;6.13;;;;;;;2.82;75.95;98542.75;4875584;29;20227;-89
2021/01/08 06:09:49;;;;;;;7.93;5.68;;;;;;;2.79;75.75;98543.75;4885757;29;20265;-89
2021/01/08 06:12:17;;;;;;;7.90;6.28;;;;;;;2.73;76.02;98556.41;4869445;29;20194;-91
2021/01/08 06:14:43;;;;;;;9.70;6.88;;;;;;;2.72;76.30;98550.28;4897148;29;20206;-90
2021/01/08 06:17:17;;;;;;;8.93;6.28;;;;;;;2.76;75.75;98554.50;4894597;29;20226;-91
2021/01/08 06:19:45;;;;;;;7.75;6.10;;;;;;;2.75;75.16;98557.22;4878545;29;20232;-89
2021/01/08 06:22:11;;;;;;;8.75;6.30;;;;;;;2.66;75.62;98558.50;4897867;29;20231;-88
2021/01/08 06:24:37;;;;;;;12.38;7.75;;;;;;;2.62;75.71;98559.53;4869889;29;20253;-89
2021/01/08 06:27:06;;;;;;;9.05;6.38;;;;;;;2.66;75.53;98557.63;4882898;29;20199;-88
2021/01/08 06:29:33;;;;;;;9.18;6.68;;;;;;;2.67;75.73;98560.22;4885625;29;20222;-87
2021/01/08 06:32:09;;;;;;;10.07;7.43;;;;;;;2.60;75.70;98558.75;4874379;29;20238;-87
2021/01/08 06:34:44;;;;;;;10.80;7.25;;;;;;;2.61;76.58;98565.78;4878930;29;20230;-89
2021/01/08 06:37:18;;;;;;;11.98;8.90;;;;;;;2.50;76.69;98568.03;4867647;29;20234;-89
2021/01/08 06:39:46;;;;;;;9.40;7.20;;;;;;;2.43;77.83;98573.66;4862983;29;20250;-88
2021/01/08 06:42:45;;;;;;;8.93;6.38;;;;;;;2.28;78.46;98572.53;4877280;29;20233;-88
2021/01/08 06:45:13;;;;;;;9.00;6.53;;;;;;;2.19;78.53;98572.03;4863241;29;20203;-88
2021/01/08 06:47:44;;;;;;;9.48;7.35;;;;;;;2.11;80.31;98575.00;4867823;29;20203;-88
2021/01/08 06:50:17;;;;;;;11.80;7.68;;;;;;;2.17;80.60;98580.03;4850503;29;20232;-87
2021/01/08 06:52:45;;;;;;;10.10;6.78;;;;;;;2.10;80.96;98578.56;4879949;29;20230;-88
2021/01/08 06:55:22;;;;;;;9.40;7.20;;;;;;;2.16;80.89;98583.63;4869775;29;20240;-88
2021/01/08 06:57:53;;;;;;;10.27;6.93;;;;;;;2.16;79.96;98578.31;4869978;29;20264;-88
2021/01/08 07:00:28;;;;;;;12.50;8.45;;;;;;;2.12;80.47;98576.72;4871736;29;20223;-88
2021/01/08 07:03:01;;;;;;;11.65;8.02;;;;;;;2.22;80.87;98578.06;4881230;29;20226;-87
2021/01/08 07:05:27;;;;;;;12.85;7.70;;;;;;;2.16;81.02;98580.09;4882817;29;20238;-87
2021/01/08 07:07:59;;;;;;;11.32;8.27;;;;;;;2.09;81.54;98583.94;4809860;29;20232;-87
2021/01/08 07:10:30;;;;;;;11.88;7.90;;;;;;;1.98;81.95;98584.38;4845830;29;20293;-86
2021/01/08 07:13:00;;;;;;;12.63;8.40;;;;;;;2.05;82.19;98591.16;4879384;29;22110;-86
2021/01/08 07:15:33;;;;;;;16.10;9.45;;;;;;;2.10;82.88;98598.91;4840531;29;20231;-86
2021/01/08 07:18:03;;;;;;;12.95;8.55;;;;;;;2.03;82.64;98598.31;4831605;29;20206;-86
2021/01/08 07:21:14;;;;;;;15.13;9.57;;;;;;;1.98;83.29;98596.75;4864747;29;20230;-86
2021/01/08 07:23:48;;;;;;;12.15;8.70;;;;;;;1.99;83.74;98601.16;4891481;29;20294;-86
2021/01/08 07:26:18;;;;;;;14.43;8.98;;;;;;;1.97;83.36;98595.03;4871310;29;20226;-86
2021/01/08 07:29:14;;;;;;;14.77;9.70;;;;;;;1.99;83.05;98604.66;4791124;29;20224;-86
2021/01/08 07:31:49;;;;;;;18.25;9.02;;;;;;;1.85;82.94;98612.28;4854872;29;20226;-87
2021/01/08 07:34:35;;;;;;;15.45;8.70;;;;;;;1.86;82.98;98619.31;4876620;29;20729;-87
2021/01/08 07:37:09;;;;;;;20.23;10.93;;;;;;;1.95;82.52;98616.31;4843286;29;20279;-85
2021/01/08 07:39:48;;;;;;;12.32;8.73;;;;;;;1.96;82.88;98619.81;4812782;29;20236;-86
2021/01/08 07:42:32;;;;;;;13.57;9.75;;;;;;;1.95;82.82;98621.63;4821019;29;20251;-87
2021/01/08 07:45:03;;;;;;;13.07;9.77;;;;;;;1.99;82.85;98628.50;4874597;29;20203;-87
2021/01/08 07:47:37;;;;;;;18.60;11.73;;;;;;;2.00;83.43;98630.22;4851161;29;20211;-87
2021/01/08 07:50:08;;;;;;;13.82;9.93;;;;;;;1.94;83.22;98635.78;4841294;29;20259;-85
2021/01/08 07:52:54;;;;;;;16.88;11.52;;;;;;;1.89;83.34;98637.75;4770800;29;20224;-89
2021/01/08 07:55:39;;;;;;;16.55;9.77;;;;;;;1.86;83.59;98643.16;4829918;29;20215;-86
2021/01/08 07:58:23;;;;;;;13.70;9.90;;;;;;;1.85;83.75;98641.44;4852176;29;20269;-88
2021/01/08 08:00:51;;;;;;;17.08;11.23;;;;;;;1.73;84.00;98646.38;4866312;29;20302;-87
2021/01/08 08:03:19;;;;;;;15.85;9.90;;;;;;;1.67;83.84;98647.44;4852844;29;20207;-88
2021/01/08 08:05:46;;;;;;;20.35;11.00;;;;;;;1.69;83.84;98656.19;4869837;29;20209;-86
2021/01/08 08:08:13;;;;;;;18.00;11.90;;;;;;;1.67;84.33;98655.41;4839496;29;20223;-87
2021/01/08 08:10:47;;;;;;;14.98;10.77;;;;;;;1.69;84.42;98661.50;4827944;29;20234;-87
2021/01/08 08:14:07;;;;;;;17.00;12.02;;;;;;;1.73;84.46;98668.41;4835334;29;20238;-87
2021/01/08 08:16:40;;;;;;;19.13;10.65;;;;;;;1.87;83.46;98670.56;4879753;29;20239;-88
2021/01/08 08:19:12;;;;;;;17.60;10.10;;;;;;;1.90;82.86;98673.94;4860164;28;20246;-88
2021/01/08 08:21:46;;;;;;;14.50;9.75;;;;;;;1.88;82.80;98678.41;4858191;29;20330;-88
2021/01/08 08:24:34;;;;;;;18.73;11.65;;;;;;;1.96;82.74;98684.31;4850007;29;20607;-87
2021/01/08 08:27:15;;;;;;;16.40;10.23;;;;;;;1.98;82.33;98677.16;4863408;29;20227;-88
2021/01/08 08:29:44;;;;;;;20.15;11.13;;;;;;;1.99;82.05;98681.53;4869882;29;20226;-86
2021/01/08 08:32:16;;;;;;;14.02;10.07;;;;;;;2.04;82.08;98687.53;4850976;29;20226;-86
2021/01/08 08:34:44;;;;;;;19.25;12.07;;;;;;;1.95;82.67;98697.63;4880821;29;20309;-87
2021/01/08 08:37:21;;;;;;;17.42;11.52;;;;;;;1.89;82.69;98693.44;4867196;29;20273;-87
2021/01/08 08:39:59;;;;;;;17.95;10.60;;;;;;;1.94;83.20;98691.44;4865102;29;20297;-88
2021/01/08 08:42:26;;;;;;;17.67;10.73;;;;;;;1.95;82.88;98689.66;4852059;29;20326;-87
2021/01/08 08:44:53;;;;;;;22.25;11.75;;;;;;;1.84;83.05;98682.13;4846272;29;20257;-87
2021/01/08 08:47:19;;;;;;;19.55;12.48;;;;;;;1.81;82.85;98697.28;4876273;29;22167;-88
2021/01/08 08:50:12;;;;;;;16.67;11.73;;;;;;;1.93;83.31;98697.66;4871331;29;20311;-87
2021/01/08 08:52:38;;;;;;;19.80;12.30;;;;;;;1.97;83.35;98701.06;4876981;29;20229;-86
2021/01/08 08:55:08;;;;;;;17.50;11.13;;;;;;;2.08;82.37;98701.53;4862331;29;20222;-87
2021/01/08 08:57:38;;;;;;;17.73;10.65;;;;;;;2.15;82.18;98703.91;4872313;29;20294;-86
2021/01/08 09:00:18;;;;;;;17.23;12.93;;;;;;;2.27;81.91;98702.53;4865233;29;20229;-87
2021/01/08 09:02:45;;;;;;;17.70;11.45;;;;;;;2.30;80.86;98705.94;4871149;29;20214;-86
2021/01/08 09:05:14;;;;;;;15.80;10.70;;;;;;;2.39;80.83;98707.38;4866912;29;20219;-87
2021/01/08 09:07:53;;;;;;;15.40;10.43;;;;;;;2.24;80.68;98707.97;4862038;29;20227;-86
2021/01/08 09:10:22;;;;;;;19.45;11.10;;;;;;;2.31;81.83;98707.66;4887017;29;20226;-87
2021/01/08 09:13:01;;;;;;;17.48;10.90;;;;;;;2.22;80.84;98713.34;4871010;29;20254;-87
2021/01/08 09:15:45;;;;;;;22.63;10.38;;;;;;;2.23;80.90;98703.56;4873022;29;20689;-86
2021/01/08 09:18:36;;;;;;;17.60;11.43;;;;;;;2.35;81.06;98717.25;4872003;29;20211;-88
2021/01/08 09:21:12;;;;;;;17.83;11.60;;;;;;;2.38;80.43;98717.09;4871410;29;20705;-87
2021/01/08 09:23:42;;;;;;;15.68;10.88;;;;;;;2.37;81.29;98726.00;4890003;29;20202;-87
2021/01/08 09:26:18;;;;;;;17.30;11.93;;;;;;;2.63;80.91;98714.34;4857305;29;20249;-85
2021/01/08 09:28:47;;;;;;;19.15;11.90;;;;;;;2.52;79.73;98714.75;4872277;29;20226;-86
2021/01/08 09:31:14;;;;;;;14.60;10.20;;;;;;;2.49;80.35;98719.31;4882249;29;20234;-87
2021/01/08 09:33:57;;;;;;;18.27;11.93;;;;;;;2.55;80.22;98719.97;4861182;29;20286;-87
2021/01/08 09:36:31;;;;;;;18.27;11.38;;;;;;;2.66;80.55;98723.03;4869731;29;20245;-87
2021/01/08 09:39:10;;;;;;;17.40;11.55;;;;;;;2.60;80.02;98730.38;4882782;29;20187;-88
2021/01/08 09:41:38;;;;;;;20.23;13.15;;;;;;;2.82;80.75;98739.22;4860251;29;20230;-87
2021/01/08 09:44:08;;;;;;;16.65;10.60;;;;;;;2.77;79.60;98733.22;4856409;29;20233;-87
2021/01/08 09:46:58;;;;;;;18.98;11.05;;;;;;;2.71;79.30;98736.97;4808936;29;20247;-87
2021/01/08 09:49:48;;;;;;;16.08;10.85;;;;;;;2.72;80.32;98738.72;4826045;29;20262;-88
2021/01/08 09:52:15;;;;;;;18.63;12.15;;;;;;;2.71;79.21;98742.28;4868950;29;20624;-86
2021/01/08 09:55:02;;;;;;;17.95;12.18;;;;;;;2.68;79.49;98745.06;4855914;29;20226;-87
2021/01/08 09:57:35;;;;;;;19.50;13.95;;;;;;;2.49;80.26;98741.44;4868215;29;20226;-87
2021/01/08 10:00:09;;;;;;;22.35;13.40;;;;;;;2.49;80.14;98743.19;4856401;29;20226;-87
2021/01/08 10:02:54;;;;;;;15.65;11.13;;;;;;;2.24;80.75;98751.25;4875216;29;20187;-86
2021/01/08 10:05:36;;;;;;;22.30;14.48;;;;;;;2.36;81.44;98748.13;4877871;29;20218;-87
2021/01/08 10:08:04;;;;;;;19.35;13.07;;;;;;;2.35;81.63;98754.38;4869898;29;20258;-86
2021/01/08 10:10:33;;;;;;;21.17;12.52;;;;;;;2.33;81.29;98755.34;4869995;29;20259;-86
2021/01/08 10:13:00;;;;;;;19.05;12.45;;;;;;;2.31;81.74;98750.09;4871443;29;20594;-88
2021/01/08 10:15:41;;;;;;;17.08;11.60;;;;;;;2.29;82.41;98753.72;4854757;29;20313;-87
2021/01/08 10:18:38;;;;;;;17.40;11.52;;;;;;;2.31;81.43;98763.38;4826069;29;20229;-87
2021/01/08 10:21:13;;;;;;;20.38;12.98;;;;;;;2.29;82.09;98759.03;4836355;29;20223;-88
2021/01/08 10:23:45;;;;;;;20.88;13.55;;;;;;;2.30;81.59;98759.00;4880676;29;20205;-86
2021/01/08 10:26:17;;;;;;;22.50;13.70;;;;;;;2.26;81.87;98749.41;4849895;29;20235;-87
2021/01/08 10:28:56;;;;;;;18.77;12.70;;;;;;;2.43;82.41;98757.59;4857405;29;20261;-85
2021/01/08 10:36:07;;;;;;;17.75;12.13;;;;;;;2.55;80.69;98756.22;4781714;29;20254;-89
2021/01/08 10:39:25;;;;;;;18.67;13.45;;;;;;;2.34;81.45;98750.00;4838887;29;20316;-89
2021/01/08 10:42:06;;;;;;;22.05;13.48;;;;;;;2.50;81.21;98751.09;4838635;29;20234;-86
2021/01/08 10:44:41;;;;;;;22.65;13.52;;;;;;;2.46;80.61;98751.31;4878023;29;20209;-83
2021/01/08 10:47:08;;;;;;;22.58;14.15;;;;;;;2.40;81.65;98755.06;4862776;29;20230;-88
2021/01/08 10:49:54;;;;;;;18.73;12.45;;;;;;;2.34;80.93;98757.97;4890878;29;20227;-85
2021/01/08 10:52:24;;;;;;;20.50;13.55;;;;;;;2.53;81.56;98755.44;4861259;29;20234;-87
2021/01/08 10:54:55;;;;;;;20.80;13.35;;;;;;;2.72;81.19;98759.97;4883746;29;20248;-85
2021/01/08 10:57:21;;;;;;;21.48;13.05;;;;;;;2.74;80.70;98747.47;4855212;29;20254;-87
2021/01/08 10:59:48;;;;;;;17.13;12.90;;;;;;;2.96;80.08;98747.47;4852675;29;20222;-86
2021/01/08 11:02:17;;;;;;;19.42;12.68;;;;;;;2.83;80.67;98747.09;4837681;29;20239;-83
2021/01/08 11:04:44;;;;;;;18.05;12.10;;;;;;;2.82;79.42;98750.69;4859172;29;20223;-83
2021/01/08 11:07:11;;;;;;;18.35;11.63;;;;;;;2.57;80.05;98749.09;4867726;29;20295;-82
2021/01/08 11:09:38;;;;;;;19.27;12.10;;;;;;;2.46;81.52;98749.53;4860726;29;20230;-83
2021/01/08 11:12:09;;;;;;;22.10;13.98;;;;;;;2.43;81.42;98744.31;4866203;29;20281;-81
2021/01/08 11:14:35;;;;;;;21.17;13.70;;;;;;;2.36;81.59;98734.00;4865053;29;20299;-84
2021/01/08 11:17:02;;;;;;;17.88;12.05;;;;;;;2.37;82.00;98736.59;4866536;29;20227;-83
2021/01/08 11:19:28;;;;;;;19.63;12.40;;;;;;;2.41;82.11;98737.34;4870098;29;20260;-85
2021/01/08 11:21:54;;;;;;;16.75;12.13;;;;;;;2.36;81.76;98734.00;4871790;29;20260;-84
2021/01/08 11:24:21;;;;;;;21.05;12.25;;;;;;;2.27;82.77;98740.56;4867065;29;20306;-83
2021/01/08 11:26:47;;;;;;;26.90;15.75;;;;;;;2.42;83.28;98731.09;4871209;29;20245;-83
2021/01/08 11:29:13;;;;;;;18.80;13.27;;;;;;;2.42;81.52;98734.63;4850483;29;20725;-82
2021/01/08 11:31:41;;;;;;;20.35;13.10;;;;;;;2.41;81.33;98732.91;4874948;29;20216;-86
2021/01/08 11:34:09;;;;;;;17.63;13.35;;;;;;;2.37;81.69;98730.44;4852875;29;20302;-84
2021/01/08 11:36:37;;;;;;;22.20;14.20;;;;;;;2.47;82.02;98732.69;4896131;29;20220;-84
2021/01/08 11:39:03;;;;;;;18.02;12.32;;;;;;;2.57;81.93;98731.34;4889517;29;20203;-84
2021/01/08 11:41:29;;;;;;;18.10;12.30;;;;;;;2.33;81.59;98732.31;4889943;29;20219;-86
2021/01/08 11:43:56;;;;;;;21.38;14.23;;;;;;;2.46;81.99;98730.06;4884959;29;20242;-86
2021/01/08 11:46:23;;;;;;;20.85;13.45;;;;;;;2.62;82.44;98734.69;4888847;29;20223;-86
2021/01/08 11:48:52;;;;;;;18.02;12.65;;;;;;;2.66;81.02;98733.66;4875517;29;20259;-85
2021/01/08 11:51:19;;;;;;;21.35;13.05;;;;;;;2.69;81.34;98725.56;4864206;29;20282;-85
2021/01/08 11:53:47;;;;;;;21.17;13.23;;;;;;;2.72;80.62;98732.53;4876800;29;20210;-85
2021/01/08 11:56:14;;;;;;;19.27;12.77;;;;;;;2.65;80.69;98731.91;4889196;29;20238;-85
2021/01/08 11:58:42;;;;;;;18.55;12.80;;;;;;;2.63;80.80;98731.13;4869681;29;20277;-87
2021/01/08 12:01:09;;;;;;;21.00;14.52;;;;;;;2.61;80.82;98738.28;4859686;29;20278;-85
2021/01/08 12:03:38;;;;;;;20.70;14.77;;;;;;;2.73;80.30;98736.91;4876000;29;20214;-85